sensor_id;sensor_type;location;lat;lon;timestamp;pressure;altitude;pressure_sealevel;temperature;humidity
13553;BME280;6847;48.830;9.116;2023-04-04T00:01:52;98732.31;;;3.87;48.74
13553;BME280;6847;48.830;9.116;2023-04-04T00:04:24;98729.03;;;3.85;48.96
13553;BME280;6847;48.830;9.116;2023-04-04T00:06:53;98556.34;;;2.80;48.89
13553;BME280;6847;48.830;9.116;2023-04-04T00:09:22;98387.50;;;1.61;48.40
13553;BME280;6847;48.830;9.116;2023-04-04T00:12:03;98732.56;;;3.79;48.90
13553;BME280;6847;48.830;9.116;2023-04-04T00:14:34;98713.88;;;3.66;48.95
13553;BME280;6847;48.830;9.116;2023-04-04T00:17:26;98720.88;;;3.67;48.41
13553;BME280;6847;48.830;9.116;2023-04-04T00:19:53;98593.53;;;2.88;48.90
13553;BME280;6847;48.830;9.116;2023-04-04T00:22:23;98437.38;;;1.80;48.51
13553;BME280;6847;48.830;9.116;2023-04-04T00:24:54;98650.63;;;3.20;48.26
13553;BME280;6847;48.830;9.116;2023-04-04T00:27:23;98716.38;;;3.54;48.43
13553;BME280;6847;48.830;9.116;2023-04-04T00:29:52;98517.63;;;2.32;48.77
13553;BME280;6847;48.830;9.116;2023-04-04T00:32:19;98409.28;;;1.58;49.01
13553;BME280;6847;48.830;9.116;2023-04-04T00:34:51;98580.63;;;2.66;48.43
13553;BME280;6847;48.830;9.116;2023-04-04T00:37:19;98700.38;;;3.41;48.50
13553;BME280;6847;48.830;9.116;2023-04-04T00:39:47;98709.03;;;3.37;48.58
13553;BME280;6847;48.830;9.116;2023-04-04T00:42:26;98358.84;;;1.17;48.63
13553;BME280;6847;48.830;9.116;2023-04-04T00:44:58;98572.25;;;2.49;49.10
13553;BME280;6847;48.830;9.116;2023-04-04T00:47:28;98619.28;;;2.76;49.00
13553;BME280;6847;48.830;9.116;2023-04-04T00:50:01;98702.50;;;3.19;49.32
13553;BME280;6847;48.830;9.116;2023-04-04T00:52:29;98694.06;;;3.16;48.73
13553;BME280;6847;48.830;9.116;2023-04-04T00:54:58;98562.00;;;2.33;48.65
13553;BME280;6847;48.830;9.116;2023-04-04T00:57:56;98698.41;;;3.10;49.17
13553;BME280;6847;48.830;9.116;2023-04-04T01:00:27;98442.53;;;1.49;48.79
13553;BME280;6847;48.830;9.116;2023-04-04T01:02:54;98695.13;;;3.02;49.29
13553;BME280;6847;48.830;9.116;2023-04-04T01:05:23;98662.25;;;2.81;49.46
13553;BME280;6847;48.830;9.116;2023-04-04T01:07:50;98379.34;;;1.03;49.37
13553;BME280;6847;48.830;9.116;2023-04-04T01:10:21;98691.88;;;2.93;49.54
13553;BME280;6847;48.830;9.116;2023-04-04T01:12:51;98329.28;;;0.66;48.90
13553;BME280;6847;48.830;9.116;2023-04-04T01:15:20;98380.16;;;0.97;49.33
13553;BME280;6847;48.830;9.116;2023-04-04T01:17:48;98524.63;;;1.86;49.40
13553;BME280;6847;48.830;9.116;2023-04-04T01:20:19;98688.97;;;2.88;49.64
13553;BME280;6847;48.830;9.116;2023-04-04T01:23:03;98691.03;;;2.86;49.25
13553;BME280;6847;48.830;9.116;2023-04-04T01:25:35;98685.69;;;2.86;49.67
13553;BME280;6847;48.830;9.116;2023-04-04T01:28:04;98688.38;;;2.86;49.36
13553;BME280;6847;48.830;9.116;2023-04-04T01:30:34;98689.41;;;2.85;49.18
13553;BME280;6847;48.830;9.116;2023-04-04T01:33:08;98291.53;;;0.43;49.81
13553;BME280;6847;48.830;9.116;2023-04-04T01:35:42;98668.03;;;2.72;49.44
13553;BME280;6847;48.830;9.116;2023-04-04T01:38:20;98654.06;;;2.56;49.60
13553;BME280;6847;48.830;9.116;2023-04-04T01:40:54;98675.03;;;2.73;49.62
13553;BME280;6847;48.830;9.116;2023-04-04T01:43:23;98668.84;;;2.66;49.89
13553;BME280;6847;48.830;9.116;2023-04-04T01:45:58;98655.31;;;2.54;50.04
13553;BME280;6847;48.830;9.116;2023-04-04T01:48:29;98678.94;;;2.70;49.47
13553;BME280;6847;48.830;9.116;2023-04-04T01:50:59;98675.44;;;2.70;49.65
13553;BME280;6847;48.830;9.116;2023-04-04T01:53:27;98670.91;;;2.70;49.58
13553;BME280;6847;48.830;9.116;2023-04-04T01:55:57;98677.09;;;2.71;50.06
13553;BME280;6847;48.830;9.116;2023-04-04T01:58:24;98672.56;;;2.71;49.83
13553;BME280;6847;48.830;9.116;2023-04-04T02:00:54;98668.88;;;2.72;49.73
13553;BME280;6847;48.830;9.116;2023-04-04T02:03:21;98665.16;;;2.73;50.02
13553;BME280;6847;48.830;9.116;2023-04-04T02:05:50;98668.66;;;2.74;49.98
13553;BME280;6847;48.830;9.116;2023-04-04T02:08:27;98669.25;;;2.76;49.75
13553;BME280;6847;48.830;9.116;2023-04-04T02:10:57;98666.78;;;2.74;49.66
13553;BME280;6847;48.830;9.116;2023-04-04T02:13:25;98672.94;;;2.75;49.73
13553;BME280;6847;48.830;9.116;2023-04-04T02:16:07;98672.94;;;2.75;49.44
13553;BME280;6847;48.830;9.116;2023-04-04T02:18:34;98672.94;;;2.75;50.07
13553;BME280;6847;48.830;9.116;2023-04-04T02:21:08;98674.22;;;2.72;50.02
13553;BME280;6847;48.830;9.116;2023-04-04T02:23:35;98674.63;;;2.69;50.21
13553;BME280;6847;48.830;9.116;2023-04-04T02:26:05;98674.63;;;2.63;49.76
13553;BME280;6847;48.830;9.116;2023-04-04T02:28:46;98483.97;;;1.32;50.50
13553;BME280;6847;48.830;9.116;2023-04-04T02:31:16;98651.19;;;2.38;50.58
13553;BME280;6847;48.830;9.116;2023-04-04T02:33:49;98672.34;;;2.46;50.17
13553;BME280;6847;48.830;9.116;2023-04-04T02:36:17;98679.16;;;2.42;50.30
13553;BME280;6847;48.830;9.116;2023-04-04T02:38:47;98609.28;;;1.93;50.36
13553;BME280;6847;48.830;9.116;2023-04-04T02:41:20;98679.38;;;2.34;50.39
13553;BME280;6847;48.830;9.116;2023-04-04T02:43:47;98611.94;;;1.93;50.32
13553;BME280;6847;48.830;9.116;2023-04-04T02:46:27;98624.28;;;1.94;50.74
13553;BME280;6847;48.830;9.116;2023-04-04T02:49:01;98682.03;;;2.21;50.78
13553;BME280;6847;48.830;9.116;2023-04-04T02:51:33;98670.72;;;2.19;50.08
13553;BME280;6847;48.830;9.116;2023-04-04T02:54:07;98476.97;;;0.98;50.17
13553;BME280;6847;48.830;9.116;2023-04-04T02:56:36;98640.91;;;1.96;50.51
13553;BME280;6847;48.830;9.116;2023-04-04T02:59:06;98620.56;;;1.81;50.67
13553;BME280;6847;48.830;9.116;2023-04-04T03:01:38;98663.94;;;2.10;50.31
13553;BME280;6847;48.830;9.116;2023-04-04T03:07:24;98321.72;;;-0.05;50.46
13553;BME280;6847;48.830;9.116;2023-04-04T03:10:01;98617.25;;;1.73;50.83
13553;BME280;6847;48.830;9.116;2023-04-04T03:12:35;98656.13;;;2.02;50.73
13553;BME280;6847;48.830;9.116;2023-04-04T03:15:05;98661.84;;;1.99;50.80
13553;BME280;6847;48.830;9.116;2023-04-04T03:17:33;98655.28;;;1.95;50.47
13553;BME280;6847;48.830;9.116;2023-04-04T03:22:44;98663.69;;;1.92;50.41
13553;BME280;6847;48.830;9.116;2023-04-04T03:25:11;98504.66;;;0.97;50.92
13553;BME280;6847;48.830;9.116;2023-04-04T03:28:07;98393.06;;;0.20;50.51
13553;BME280;6847;48.830;9.116;2023-04-04T03:30:35;98373.78;;;0.11;50.70
13553;BME280;6847;48.830;9.116;2023-04-04T03:33:03;98523.53;;;1.08;51.00
13553;BME280;6847;48.830;9.116;2023-04-04T03:35:31;98643.38;;;1.84;51.04
13553;BME280;6847;48.830;9.116;2023-04-04T03:38:00;98624.06;;;1.75;50.74
13553;BME280;6847;48.830;9.116;2023-04-04T03:40:27;98656.13;;;1.95;50.68
13553;BME280;6847;48.830;9.116;2023-04-04T03:43:03;98653.66;;;1.94;50.66
13553;BME280;6847;48.830;9.116;2023-04-04T03:45:33;98629.38;;;1.75;51.27
13553;BME280;6847;48.830;9.116;2023-04-04T03:48:05;98592.38;;;1.46;50.73
13553;BME280;6847;48.830;9.116;2023-04-04T03:50:34;98316.75;;;-0.21;50.71
13553;BME280;6847;48.830;9.116;2023-04-04T03:53:02;98655.25;;;1.88;50.73
13553;BME280;6847;48.830;9.116;2023-04-04T03:55:28;98475.03;;;0.72;50.85
13553;BME280;6847;48.830;9.116;2023-04-04T03:57:56;98650.75;;;1.75;50.74
13553;BME280;6847;48.830;9.116;2023-04-04T04:00:23;98632.66;;;1.64;50.96
13553;BME280;6847;48.830;9.116;2023-04-04T04:02:59;98431.63;;;0.30;51.25
13553;BME280;6847;48.830;9.116;2023-04-04T04:05:26;98540.13;;;0.97;51.15
13553;BME280;6847;48.830;9.116;2023-04-04T04:07:53;98660.16;;;1.71;50.90
13553;BME280;6847;48.830;9.116;2023-04-04T04:10:20;98662.22;;;1.69;51.09
13553;BME280;6847;48.830;9.116;2023-04-04T04:12:48;98341.66;;;-0.28;50.86
13553;BME280;6847;48.830;9.116;2023-04-04T04:15:15;98366.31;;;-0.20;51.31
13553;BME280;6847;48.830;9.116;2023-04-04T04:17:41;98377.81;;;-0.06;50.77
13553;BME280;6847;48.830;9.116;2023-04-04T04:20:11;98622.94;;;1.43;50.99
13553;BME280;6847;48.830;9.116;2023-04-04T04:22:37;98309.81;;;-0.56;51.23
13553;BME280;6847;48.830;9.116;2023-04-04T04:25:07;98575.84;;;1.09;51.49
13553;BME280;6847;48.830;9.116;2023-04-04T04:27:34;98489.09;;;0.53;51.08
13553;BME280;6847;48.830;9.116;2023-04-04T04:30:07;98656.84;;;1.56;50.98
13553;BME280;6847;48.830;9.116;2023-04-04T04:32:34;98656.03;;;1.56;51.37
13553;BME280;6847;48.830;9.116;2023-04-04T04:35:00;98426.44;;;0.09;51.24
13553;BME280;6847;48.830;9.116;2023-04-04T04:37:28;98642.00;;;1.40;51.21
13553;BME280;6847;48.830;9.116;2023-04-04T04:39:56;98395.34;;;-0.18;51.22
13553;BME280;6847;48.830;9.116;2023-04-04T04:42:26;98660.94;;;1.52;51.30
13553;BME280;6847;48.830;9.116;2023-04-04T04:44:55;98666.47;;;1.51;51.39
13553;BME280;6847;48.830;9.116;2023-04-04T04:47:22;98680.81;;;1.49;51.69
13553;BME280;6847;48.830;9.116;2023-04-04T04:49:49;98519.88;;;0.62;51.71
13553;BME280;6847;48.830;9.116;2023-04-04T04:52:16;98492.72;;;0.39;51.74
13553;BME280;6847;48.830;9.116;2023-04-04T04:54:44;98664.22;;;1.54;51.72
13553;BME280;6847;48.830;9.116;2023-04-04T04:57:12;98608.25;;;1.13;51.60
13553;BME280;6847;48.830;9.116;2023-04-04T04:59:39;98668.56;;;1.55;51.76
13553;BME280;6847;48.830;9.116;2023-04-04T05:02:06;98670.19;;;1.56;51.37
13553;BME280;6847;48.830;9.116;2023-04-04T05:04:33;98673.47;;;1.58;51.23
13553;BME280;6847;48.830;9.116;2023-04-04T05:07:00;98674.91;;;1.61;51.48
13553;BME280;6847;48.830;9.116;2023-04-04T05:09:29;98575.81;;;1.03;51.98
13553;BME280;6847;48.830;9.116;2023-04-04T05:11:57;98649.03;;;1.55;51.85
13553;BME280;6847;48.830;9.116;2023-04-04T05:14:25;98677.22;;;1.70;51.77
13553;BME280;6847;48.830;9.116;2023-04-04T05:16:52;98604.59;;;1.21;51.91
13553;BME280;6847;48.830;9.116;2023-04-04T05:19:18;98457.25;;;0.31;51.78
13553;BME280;6847;48.830;9.116;2023-04-04T05:21:48;98669.19;;;1.64;51.46
13553;BME280;6847;48.830;9.116;2023-04-04T05:24:16;98674.53;;;1.70;51.71
13553;BME280;6847;48.830;9.116;2023-04-04T05:26:43;98631.78;;;1.44;51.87
13553;BME280;6847;48.830;9.116;2023-04-04T05:29:11;98681.13;;;1.74;51.55
13553;BME280;6847;48.830;9.116;2023-04-04T05:31:37;98690.78;;;1.75;51.75
13553;BME280;6847;48.830;9.116;2023-04-04T05:34:04;98680.69;;;1.77;51.41
13553;BME280;6847;48.830;9.116;2023-04-04T05:36:32;98695.31;;;1.81;51.67
13553;BME280;6847;48.830;9.116;2023-04-04T05:39:02;98681.56;;;1.84;51.71
13553;BME280;6847;48.830;9.116;2023-04-04T05:41:31;98688.13;;;1.89;51.63
13553;BME280;6847;48.830;9.116;2023-04-04T05:43:58;98692.06;;;1.93;51.62
13553;BME280;6847;48.830;9.116;2023-04-04T05:46:27;98693.91;;;1.99;52.10
13553;BME280;6847;48.830;9.116;2023-04-04T05:48:53;98688.59;;;2.05;51.98
13553;BME280;6847;48.830;9.116;2023-04-04T05:51:20;98700.94;;;2.13;51.53
13553;BME280;6847;48.830;9.116;2023-04-04T05:53:47;98691.06;;;2.20;51.45
13553;BME280;6847;48.830;9.116;2023-04-04T05:56:16;98694.34;;;2.29;51.81
13553;BME280;6847;48.830;9.116;2023-04-04T05:58:43;98700.31;;;2.37;51.86
13553;BME280;6847;48.830;9.116;2023-04-04T06:01:13;98605.56;;;1.80;51.45
13553;BME280;6847;48.830;9.116;2023-04-04T06:03:42;98697.25;;;2.53;51.63
13553;BME280;6847;48.830;9.116;2023-04-04T06:06:09;98691.91;;;2.60;51.97
13553;BME280;6847;48.830;9.116;2023-04-04T06:08:35;98691.88;;;2.67;52.21
13553;BME280;6847;48.830;9.116;2023-04-04T06:11:02;98674.44;;;2.64;52.18
13553;BME280;6847;48.830;9.116;2023-04-04T06:13:28;98691.03;;;2.86;51.83
13553;BME280;6847;48.830;9.116;2023-04-04T06:15:56;98694.72;;;2.98;51.55
13553;BME280;6847;48.830;9.116;2023-04-04T06:18:23;98698.00;;;3.07;51.91
13553;BME280;6847;48.830;9.116;2023-04-04T06:20:52;98694.88;;;3.16;52.12
13553;BME280;6847;48.830;9.116;2023-04-04T06:23:20;98692.59;;;3.26;51.82
13553;BME280;6847;48.830;9.116;2023-04-04T06:25:47;98688.66;;;3.35;51.48
13553;BME280;6847;48.830;9.116;2023-04-04T06:28:14;98655.53;;;3.23;51.58
13553;BME280;6847;48.830;9.116;2023-04-04T06:30:43;98518.81;;;2.42;51.42
13553;BME280;6847;48.830;9.116;2023-04-04T06:33:11;98677.69;;;3.50;51.87
13553;BME280;6847;48.830;9.116;2023-04-04T06:35:39;98689.75;;;3.66;51.18
13553;BME280;6847;48.830;9.116;2023-04-04T06:38:07;98631.25;;;3.31;51.05
13553;BME280;6847;48.830;9.116;2023-04-04T06:40:33;98638.16;;;3.46;51.73
13553;BME280;6847;48.830;9.116;2023-04-04T06:43:29;98693.16;;;3.86;51.30
13553;BME280;6847;48.830;9.116;2023-04-04T06:45:55;98692.28;;;3.92;51.35
13553;BME280;6847;48.830;9.116;2023-04-04T06:48:23;98694.75;;;4.00;51.17
13553;BME280;6847;48.830;9.116;2023-04-04T06:50:51;98698.34;;;4.13;51.30
13553;BME280;6847;48.830;9.116;2023-04-04T06:53:17;98694.16;;;4.23;51.55
13553;BME280;6847;48.830;9.116;2023-04-04T06:55:48;98650.19;;;4.06;51.74
13553;BME280;6847;48.830;9.116;2023-04-04T06:58:14;98692.00;;;4.38;50.90
13553;BME280;6847;48.830;9.116;2023-04-04T07:00:47;98694.81;;;4.50;51.83
13553;BME280;6847;48.830;9.116;2023-04-04T07:03:15;98628.66;;;4.19;51.42
13553;BME280;6847;48.830;9.116;2023-04-04T07:05:42;98691.84;;;4.58;51.64
13553;BME280;6847;48.830;9.116;2023-04-04T07:08:13;98551.47;;;3.78;51.61
13553;BME280;6847;48.830;9.116;2023-04-04T07:10:41;98687.72;;;4.80;50.55
13553;BME280;6847;48.830;9.116;2023-04-04T07:13:08;98685.94;;;4.93;50.69
13553;BME280;6847;48.830;9.116;2023-04-04T07:15:35;98680.91;;;5.03;50.86
13553;BME280;6847;48.830;9.116;2023-04-04T07:18:04;98559.44;;;4.34;50.65
13553;BME280;6847;48.830;9.116;2023-04-04T07:20:31;98635.88;;;5.05;50.42
13553;BME280;6847;48.830;9.116;2023-04-04T07:22:59;98663.75;;;5.40;51.10
13553;BME280;6847;48.830;9.116;2023-04-04T07:25:27;98589.81;;;5.08;50.78
13553;BME280;6847;48.830;9.116;2023-04-04T07:27:57;98636.69;;;7.13;48.58
13553;BME280;6847;48.830;9.116;2023-04-04T07:30:24;98681.78;;;10.19;44.21
13553;BME280;6847;48.830;9.116;2023-04-04T07:32:56;98690.75;;;13.21;41.19
13553;BME280;6847;48.830;9.116;2023-04-04T07:35:24;98691.72;;;15.79;38.28
13553;BME280;6847;48.830;9.116;2023-04-04T07:37:51;98695.16;;;17.49;37.01
13553;BME280;6847;48.830;9.116;2023-04-04T07:40:19;98645.00;;;17.67;37.34
13553;BME280;6847;48.830;9.116;2023-04-04T07:42:47;98652.72;;;18.28;37.18
13553;BME280;6847;48.830;9.116;2023-04-04T07:45:16;98700.44;;;19.52;36.95
13553;BME280;6847;48.830;9.116;2023-04-04T07:47:45;98698.34;;;20.46;36.41
13553;BME280;6847;48.830;9.116;2023-04-04T07:50:13;98707.03;;;21.17;36.31
13553;BME280;6847;48.830;9.116;2023-04-04T07:52:41;98626.31;;;21.42;36.20
13553;BME280;6847;48.830;9.116;2023-04-04T07:55:14;98713.81;;;22.50;36.07
13553;BME280;6847;48.830;9.116;2023-04-04T07:57:43;98620.25;;;21.87;36.23
13553;BME280;6847;48.830;9.116;2023-04-04T08:00:12;98693.94;;;22.36;36.64
13553;BME280;6847;48.830;9.116;2023-04-04T08:02:38;98703.63;;;22.22;36.68
13553;BME280;6847;48.830;9.116;2023-04-04T08:05:07;98696.25;;;21.58;37.38
13553;BME280;6847;48.830;9.116;2023-04-04T08:07:34;98712.94;;;21.70;37.28
13553;BME280;6847;48.830;9.116;2023-04-04T08:10:06;98550.09;;;21.08;37.08
13553;BME280;6847;48.830;9.116;2023-04-04T08:12:33;98702.06;;;22.62;36.60
13553;BME280;6847;48.830;9.116;2023-04-04T08:15:01;98701.22;;;23.03;36.31
13553;BME280;6847;48.830;9.116;2023-04-04T08:17:30;98699.63;;;23.47;35.90
13553;BME280;6847;48.830;9.116;2023-04-04T08:19:56;98701.75;;;23.63;35.77
13553;BME280;6847;48.830;9.116;2023-04-04T08:22:23;98660.13;;;23.47;36.07
13553;BME280;6847;48.830;9.116;2023-04-04T08:24:51;98579.75;;;23.40;35.59
13553;BME280;6847;48.830;9.116;2023-04-04T08:27:26;98663.41;;;23.97;35.36
13553;BME280;6847;48.830;9.116;2023-04-04T08:29:53;98630.50;;;23.35;35.64
13553;BME280;6847;48.830;9.116;2023-04-04T08:32:21;98700.75;;;23.34;35.98
13553;BME280;6847;48.830;9.116;2023-04-04T08:34:48;98620.31;;;22.49;36.29
13553;BME280;6847;48.830;9.116;2023-04-04T08:37:18;98702.66;;;23.21;35.88
13553;BME280;6847;48.830;9.116;2023-04-04T08:39:45;98701.88;;;23.66;35.28
13553;BME280;6847;48.830;9.116;2023-04-04T08:42:19;98694.41;;;24.15;35.02
13553;BME280;6847;48.830;9.116;2023-04-04T08:44:47;98711.53;;;24.69;34.29
13553;BME280;6847;48.830;9.116;2023-04-04T08:47:15;98682.66;;;24.83;33.81
13553;BME280;6847;48.830;9.116;2023-04-04T08:49:44;98701.56;;;24.81;34.06
13553;BME280;6847;48.830;9.116;2023-04-04T08:52:17;98698.66;;;25.17;33.75
13553;BME280;6847;48.830;9.116;2023-04-04T08:54:45;98696.75;;;25.33;33.50
13553;BME280;6847;48.830;9.116;2023-04-04T08:57:12;98699.25;;;25.38;33.52
13553;BME280;6847;48.830;9.116;2023-04-04T08:59:41;98706.13;;;25.88;33.10
13553;BME280;6847;48.830;9.116;2023-04-04T09:02:14;98704.16;;;25.73;32.69
13553;BME280;6847;48.830;9.116;2023-04-04T09:04:43;98704.50;;;25.28;33.39
13553;BME280;6847;48.830;9.116;2023-04-04T09:07:11;98651.66;;;25.05;32.98
13553;BME280;6847;48.830;9.116;2023-04-04T09:09:43;98706.59;;;25.74;32.79
13553;BME280;6847;48.830;9.116;2023-04-04T09:12:11;98706.66;;;26.09;32.10
13553;BME280;6847;48.830;9.116;2023-04-04T09:14:45;98713.06;;;26.45;31.90
13553;BME280;6847;48.830;9.116;2023-04-04T09:17:12;98702.16;;;26.21;32.10
13553;BME280;6847;48.830;9.116;2023-04-04T09:19:40;98706.00;;;25.53;32.20
13553;BME280;6847;48.830;9.116;2023-04-04T09:22:07;98698.69;;;25.61;32.41
13553;BME280;6847;48.830;9.116;2023-04-04T09:24:40;98572.69;;;24.55;32.30
13553;BME280;6847;48.830;9.116;2023-04-04T09:27:07;98697.88;;;24.12;33.53
13553;BME280;6847;48.830;9.116;2023-04-04T09:29:36;98700.25;;;24.50;33.10
13553;BME280;6847;48.830;9.116;2023-04-04T09:32:08;98701.47;;;25.61;31.77
13553;BME280;6847;48.830;9.116;2023-04-04T09:34:35;98674.63;;;26.47;30.86
13553;BME280;6847;48.830;9.116;2023-04-04T09:37:04;98703.19;;;27.40;30.06
13553;BME280;6847;48.830;9.116;2023-04-04T09:39:33;98698.09;;;28.11;29.69
13553;BME280;6847;48.830;9.116;2023-04-04T09:42:00;98706.28;;;28.04;29.79
13553;BME280;6847;48.830;9.116;2023-04-04T09:44:28;98555.47;;;27.00;30.04
13553;BME280;6847;48.830;9.116;2023-04-04T09:47:25;98699.78;;;27.50;30.42
13553;BME280;6847;48.830;9.116;2023-04-04T09:49:53;98705.59;;;26.30;31.13
13553;BME280;6847;48.830;9.116;2023-04-04T09:52:26;98705.94;;;26.12;31.46
13553;BME280;6847;48.830;9.116;2023-04-04T09:54:57;98704.50;;;25.87;31.41
13553;BME280;6847;48.830;9.116;2023-04-04T09:57:28;98695.56;;;25.19;31.78
13553;BME280;6847;48.830;9.116;2023-04-04T09:59:56;98590.03;;;24.40;31.39
13553;BME280;6847;48.830;9.116;2023-04-04T10:02:27;98683.59;;;25.30;31.03
13553;BME280;6847;48.830;9.116;2023-04-04T10:04:56;98706.75;;;26.13;30.57
13553;BME280;6847;48.830;9.116;2023-04-04T10:07:24;98698.75;;;26.43;29.68
13553;BME280;6847;48.830;9.116;2023-04-04T10:09:54;98711.84;;;26.27;29.93
13553;BME280;6847;48.830;9.116;2023-04-04T10:12:25;98665.22;;;25.10;30.25
13553;BME280;6847;48.830;9.116;2023-04-04T10:14:55;98694.72;;;25.46;30.17
13553;BME280;6847;48.830;9.116;2023-04-04T10:17:22;98693.47;;;25.59;29.72
13553;BME280;6847;48.830;9.116;2023-04-04T10:19:51;98649.47;;;24.58;30.75
13553;BME280;6847;48.830;9.116;2023-04-04T10:22:20;98688.41;;;24.13;31.33
13553;BME280;6847;48.830;9.116;2023-04-04T10:24:52;98691.06;;;24.46;30.42
13553;BME280;6847;48.830;9.116;2023-04-04T10:27:20;98651.91;;;24.88;30.14
13553;BME280;6847;48.830;9.116;2023-04-04T10:29:47;98660.34;;;25.19;29.53
13553;BME280;6847;48.830;9.116;2023-04-04T10:32:20;98685.09;;;25.12;29.51
13553;BME280;6847;48.830;9.116;2023-04-04T10:34:59;98677.72;;;24.24;30.06
13553;BME280;6847;48.830;9.116;2023-04-04T10:37:31;98673.78;;;24.01;30.29
13553;BME280;6847;48.830;9.116;2023-04-04T10:40:06;98675.97;;;23.25;30.46
13553;BME280;6847;48.830;9.116;2023-04-04T10:42:38;98671.50;;;23.33;30.31
13553;BME280;6847;48.830;9.116;2023-04-04T10:45:06;98653.28;;;23.77;29.77
13553;BME280;6847;48.830;9.116;2023-04-04T10:47:38;98676.06;;;24.47;29.19
13553;BME280;6847;48.830;9.116;2023-04-04T10:50:13;98623.44;;;23.83;29.45
13553;BME280;6847;48.830;9.116;2023-04-04T10:52:42;98675.16;;;24.31;29.55
13553;BME280;6847;48.830;9.116;2023-04-04T10:55:11;98673.72;;;24.49;29.24
13553;BME280;6847;48.830;9.116;2023-04-04T10:57:43;98675.41;;;24.26;29.38
13553;BME280;6847;48.830;9.116;2023-04-04T11:00:22;98677.16;;;24.58;29.35
13553;BME280;6847;48.830;9.116;2023-04-04T11:02:54;98660.53;;;24.70;29.15
13553;BME280;6847;48.830;9.116;2023-04-04T11:05:45;98578.22;;;24.55;29.04
13553;BME280;6847;48.830;9.116;2023-04-04T11:08:15;98657.84;;;25.30;29.03
13553;BME280;6847;48.830;9.116;2023-04-04T11:10:50;98616.34;;;24.90;28.97
13553;BME280;6847;48.830;9.116;2023-04-04T11:13:24;98658.50;;;24.55;29.29
13553;BME280;6847;48.830;9.116;2023-04-04T11:15:57;98657.53;;;24.36;29.73
13553;BME280;6847;48.830;9.116;2023-04-04T11:18:46;98659.13;;;24.37;29.42
13553;BME280;6847;48.830;9.116;2023-04-04T11:21:20;98651.34;;;24.54;29.32
13553;BME280;6847;48.830;9.116;2023-04-04T11:24:13;98535.63;;;24.32;28.97
13553;BME280;6847;48.830;9.116;2023-04-04T11:26:44;98657.72;;;25.11;29.02
13553;BME280;6847;48.830;9.116;2023-04-04T11:29:20;98652.34;;;25.02;28.96
13553;BME280;6847;48.830;9.116;2023-04-04T11:31:50;98468.69;;;23.86;29.06
13553;BME280;6847;48.830;9.116;2023-04-04T11:34:31;98646.81;;;24.90;29.14
13553;BME280;6847;48.830;9.116;2023-04-04T11:37:30;98416.53;;;23.08;29.30
13553;BME280;6847;48.830;9.116;2023-04-04T11:40:14;98505.13;;;23.64;29.14
13553;BME280;6847;48.830;9.116;2023-04-04T11:42:47;98653.59;;;24.37;29.42
13553;BME280;6847;48.830;9.116;2023-04-04T11:45:28;98366.72;;;22.11;29.52
13553;BME280;6847;48.830;9.116;2023-04-04T11:48:09;98399.13;;;22.14;30.01
13553;BME280;6847;48.830;9.116;2023-04-04T11:50:45;98533.78;;;23.23;29.60
13553;BME280;6847;48.830;9.116;2023-04-04T11:53:30;98523.19;;;23.13;29.60
13553;BME280;6847;48.830;9.116;2023-04-04T11:56:02;98498.44;;;22.80;29.72
13553;BME280;6847;48.830;9.116;2023-04-04T11:58:30;98493.25;;;22.45;29.88
13553;BME280;6847;48.830;9.116;2023-04-04T12:01:01;98630.81;;;23.09;30.16
13553;BME280;6847;48.830;9.116;2023-04-04T12:03:28;98615.88;;;22.77;30.35
13553;BME280;6847;48.830;9.116;2023-04-04T12:05:56;98631.28;;;22.58;30.39
13553;BME280;6847;48.830;9.116;2023-04-04T12:08:23;98626.66;;;21.70;31.31
13553;BME280;6847;48.830;9.116;2023-04-04T12:10:52;98629.13;;;21.25;31.68
13553;BME280;6847;48.830;9.116;2023-04-04T12:13:19;98622.53;;;21.00;31.95
13553;BME280;6847;48.830;9.116;2023-04-04T12:15:46;98629.03;;;20.78;32.07
13553;BME280;6847;48.830;9.116;2023-04-04T12:18:22;98498.50;;;19.89;32.07
13553;BME280;6847;48.830;9.116;2023-04-04T12:20:49;98621.63;;;20.53;32.14
13553;BME280;6847;48.830;9.116;2023-04-04T12:23:17;98617.41;;;20.38;32.10
13553;BME280;6847;48.830;9.116;2023-04-04T12:25:45;98486.53;;;19.03;32.44
13553;BME280;6847;48.830;9.116;2023-04-04T12:28:24;98605.63;;;19.24;32.71
13553;BME280;6847;48.830;9.116;2023-04-04T12:30:52;98543.75;;;18.78;33.25
13553;BME280;6847;48.830;9.116;2023-04-04T12:33:21;98464.63;;;18.41;32.46
13553;BME280;6847;48.830;9.116;2023-04-04T12:35:51;98527.94;;;18.84;32.78
13553;BME280;6847;48.830;9.116;2023-04-04T12:38:19;98584.84;;;19.40;32.77
13553;BME280;6847;48.830;9.116;2023-04-04T12:40:45;98605.97;;;19.71;32.39
13553;BME280;6847;48.830;9.116;2023-04-04T12:43:15;98591.94;;;19.81;32.40
13553;BME280;6847;48.830;9.116;2023-04-04T12:45:48;98594.75;;;20.15;32.10
13553;BME280;6847;48.830;9.116;2023-04-04T12:48:24;98590.25;;;20.54;31.88
13553;BME280;6847;48.830;9.116;2023-04-04T12:50:57;98556.22;;;20.67;31.74
13553;BME280;6847;48.830;9.116;2023-04-04T12:53:26;98470.16;;;20.49;31.59
13553;BME280;6847;48.830;9.116;2023-04-04T12:55:54;98466.00;;;20.35;31.36
13553;BME280;6847;48.830;9.116;2023-04-04T12:58:24;98553.59;;;20.79;31.58
13553;BME280;6847;48.830;9.116;2023-04-04T13:00:56;98593.03;;;21.18;31.38
13553;BME280;6847;48.830;9.116;2023-04-04T13:03:27;98578.09;;;21.57;31.12
13553;BME280;6847;48.830;9.116;2023-04-04T13:05:54;98324.44;;;20.32;30.51
13553;BME280;6847;48.830;9.116;2023-04-04T13:08:24;98345.78;;;20.73;30.50
13553;BME280;6847;48.830;9.116;2023-04-04T13:10:59;98482.94;;;21.80;30.34
13553;BME280;6847;48.830;9.116;2023-04-04T13:13:45;98579.50;;;22.55;30.16
13553;BME280;6847;48.830;9.116;2023-04-04T13:16:29;98521.44;;;22.18;30.06
13553;BME280;6847;48.830;9.116;2023-04-04T13:19:00;98421.84;;;21.57;29.89
13553;BME280;6847;48.830;9.116;2023-04-04T13:21:26;98471.38;;;22.07;30.21
13553;BME280;6847;48.830;9.116;2023-04-04T13:23:53;98409.00;;;22.03;29.71
13553;BME280;6847;48.830;9.116;2023-04-04T13:26:24;98428.84;;;22.29;29.94
13553;BME280;6847;48.830;9.116;2023-04-04T13:28:54;98392.56;;;21.86;29.79
13553;BME280;6847;48.830;9.116;2023-04-04T13:31:31;98489.28;;;22.67;30.15
13553;BME280;6847;48.830;9.116;2023-04-04T13:33:58;98296.56;;;21.88;29.57
13553;BME280;6847;48.830;9.116;2023-04-04T13:36:25;98566.16;;;23.71;29.48
13553;BME280;6847;48.830;9.116;2023-04-04T13:38:52;98402.34;;;22.61;29.30
13553;BME280;6847;48.830;9.116;2023-04-04T13:41:21;98291.00;;;21.63;29.61